Terminal Aerodrome Forecast
Issued by NWS Pendleton, OR

Home | Current Version | Previous Version | Text Only | Print | Product List | Glossary On
Versions: 1 2 3 4 5 6 7 8 9 10 11 12 13 14 15 16 17 18 19 20 21 22 23 24 25 26 27 28 29 30 31 32 33 34
000
FTUS46 KPDT 181421 AAB
TAFPDT
TAF AMD
KPDT 181421Z 1814/1912 12005KT P6SM OVC050
     FM181600 15004KT 3SM -RASN BR OVC025
     FM182100 22006KT P6SM OVC025
     FM190500 12004KT P6SM OVC040=

USA.gov is the U.S. government's official web portal to all federal, state and local government web resources and services.